sensor_id;sensor_type;location;lat;lon;timestamp;temperature;humidity
46562;DHT22;32289;42.688;23.330;2023-07-29T00:01:16;18.90;78.70
46562;DHT22;32289;42.688;23.330;2023-07-29T00:04:56;18.80;81.00
46562;DHT22;32289;42.688;23.330;2023-07-29T00:08:39;18.70;83.00
46562;DHT22;32289;42.688;23.330;2023-07-29T00:12:20;18.60;81.00
46562;DHT22;32289;42.688;23.330;2023-07-29T00:16:01;18.70;80.90
46562;DHT22;32289;42.688;23.330;2023-07-29T00:19:42;18.60;82.30
46562;DHT22;32289;42.688;23.330;2023-07-29T00:23:24;18.70;79.80
46562;DHT22;32289;42.688;23.330;2023-07-29T00:27:05;18.80;80.80
46562;DHT22;32289;42.688;23.330;2023-07-29T00:30:45;18.70;81.40
46562;DHT22;32289;42.688;23.330;2023-07-29T00:34:26;18.70;81.00
46562;DHT22;32289;42.688;23.330;2023-07-29T00:38:08;18.50;81.50
46562;DHT22;32289;42.688;23.330;2023-07-29T00:41:48;18.20;82.30
46562;DHT22;32289;42.688;23.330;2023-07-29T00:45:30;18.00;83.50
46562;DHT22;32289;42.688;23.330;2023-07-29T00:49:12;18.00;83.20
46562;DHT22;32289;42.688;23.330;2023-07-29T00:52:52;18.00;83.30
46562;DHT22;32289;42.688;23.330;2023-07-29T00:56:33;18.00;84.40
46562;DHT22;32289;42.688;23.330;2023-07-29T01:00:17;18.10;83.20
46562;DHT22;32289;42.688;23.330;2023-07-29T01:03:58;18.00;85.10
46562;DHT22;32289;42.688;23.330;2023-07-29T01:08:04;18.00;83.60
46562;DHT22;32289;42.688;23.330;2023-07-29T01:15:56;18.10;84.80
46562;DHT22;32289;42.688;23.330;2023-07-29T01:20:04;18.00;84.40
46562;DHT22;32289;42.688;23.330;2023-07-29T01:23:52;17.90;85.30
46562;DHT22;32289;42.688;23.330;2023-07-29T01:27:34;17.90;87.30
46562;DHT22;32289;42.688;23.330;2023-07-29T01:31:38;17.80;85.70
46562;DHT22;32289;42.688;23.330;2023-07-29T01:39:11;17.80;86.10
46562;DHT22;32289;42.688;23.330;2023-07-29T01:42:53;17.90;87.30
46562;DHT22;32289;42.688;23.330;2023-07-29T01:46:34;17.90;85.70
46562;DHT22;32289;42.688;23.330;2023-07-29T01:50:15;17.90;86.80
46562;DHT22;32289;42.688;23.330;2023-07-29T01:53:55;17.80;87.20
46562;DHT22;32289;42.688;23.330;2023-07-29T01:57:36;17.80;86.20
46562;DHT22;32289;42.688;23.330;2023-07-29T02:01:18;17.70;87.20
46562;DHT22;32289;42.688;23.330;2023-07-29T02:04:58;17.70;89.90
46562;DHT22;32289;42.688;23.330;2023-07-29T02:08:40;17.80;87.60
46562;DHT22;32289;42.688;23.330;2023-07-29T02:12:21;17.60;87.80
46562;DHT22;32289;42.688;23.330;2023-07-29T02:16:02;17.60;89.30
46562;DHT22;32289;42.688;23.330;2023-07-29T02:19:42;17.50;90.30
46562;DHT22;32289;42.688;23.330;2023-07-29T02:23:23;17.30;90.60
46562;DHT22;32289;42.688;23.330;2023-07-29T02:27:04;17.30;90.90
46562;DHT22;32289;42.688;23.330;2023-07-29T02:30:45;17.30;90.90
46562;DHT22;32289;42.688;23.330;2023-07-29T02:34:26;17.20;90.90
46562;DHT22;32289;42.688;23.330;2023-07-29T02:38:08;17.10;90.80
46562;DHT22;32289;42.688;23.330;2023-07-29T02:41:49;17.20;91.20
46562;DHT22;32289;42.688;23.330;2023-07-29T02:45:29;17.30;91.70
46562;DHT22;32289;42.688;23.330;2023-07-29T02:49:10;17.00;91.40
46562;DHT22;32289;42.688;23.330;2023-07-29T02:52:51;17.10;91.40
46562;DHT22;32289;42.688;23.330;2023-07-29T02:56:32;16.90;92.10
46562;DHT22;32289;42.688;23.330;2023-07-29T03:00:13;16.80;92.60
46562;DHT22;32289;42.688;23.330;2023-07-29T03:03:53;17.00;92.30
46562;DHT22;32289;42.688;23.330;2023-07-29T03:07:35;17.00;93.10
46562;DHT22;32289;42.688;23.330;2023-07-29T03:11:16;16.90;93.30
46562;DHT22;32289;42.688;23.330;2023-07-29T03:14:57;16.90;93.70
46562;DHT22;32289;42.688;23.330;2023-07-29T03:18:39;16.80;92.40
46562;DHT22;32289;42.688;23.330;2023-07-29T03:22:20;17.10;92.00
46562;DHT22;32289;42.688;23.330;2023-07-29T03:26:02;17.10;91.80
46562;DHT22;32289;42.688;23.330;2023-07-29T03:29:50;16.90;92.60
46562;DHT22;32289;42.688;23.330;2023-07-29T03:33:30;16.70;92.50
46562;DHT22;32289;42.688;23.330;2023-07-29T03:37:11;16.70;93.50
46562;DHT22;32289;42.688;23.330;2023-07-29T03:40:52;16.80;93.40
46562;DHT22;32289;42.688;23.330;2023-07-29T03:44:33;16.70;93.40
46562;DHT22;32289;42.688;23.330;2023-07-29T03:48:17;16.90;92.50
46562;DHT22;32289;42.688;23.330;2023-07-29T03:51:57;16.60;93.30
46562;DHT22;32289;42.688;23.330;2023-07-29T03:55:39;16.70;93.30
46562;DHT22;32289;42.688;23.330;2023-07-29T03:59:20;16.70;92.90
46562;DHT22;32289;42.688;23.330;2023-07-29T04:03:04;17.00;92.60
46562;DHT22;32289;42.688;23.330;2023-07-29T04:06:44;17.00;92.70
46562;DHT22;32289;42.688;23.330;2023-07-29T04:10:25;17.10;92.50
46562;DHT22;32289;42.688;23.330;2023-07-29T04:14:06;17.00;90.60
46562;DHT22;32289;42.688;23.330;2023-07-29T04:17:46;17.30;89.20
46562;DHT22;32289;42.688;23.330;2023-07-29T04:21:27;17.70;87.40
46562;DHT22;32289;42.688;23.330;2023-07-29T04:25:08;19.60;77.60
46562;DHT22;32289;42.688;23.330;2023-07-29T04:28:49;20.00;75.20
46562;DHT22;32289;42.688;23.330;2023-07-29T04:32:29;17.90;85.00
46562;DHT22;32289;42.688;23.330;2023-07-29T04:36:11;17.70;87.80
46562;DHT22;32289;42.688;23.330;2023-07-29T04:39:52;17.50;88.90
46562;DHT22;32289;42.688;23.330;2023-07-29T04:43:33;20.20;76.10
46562;DHT22;32289;42.688;23.330;2023-07-29T04:47:14;21.40;68.40
46562;DHT22;32289;42.688;23.330;2023-07-29T04:50:56;19.90;74.10
46562;DHT22;32289;42.688;23.330;2023-07-29T04:54:37;19.10;80.50
46562;DHT22;32289;42.688;23.330;2023-07-29T04:58:18;21.60;69.10
46562;DHT22;32289;42.688;23.330;2023-07-29T05:01:58;22.50;65.50
46562;DHT22;32289;42.688;23.330;2023-07-29T05:05:40;22.30;64.60
46562;DHT22;32289;42.688;23.330;2023-07-29T05:09:21;22.20;65.00
46562;DHT22;32289;42.688;23.330;2023-07-29T05:13:01;21.40;68.00
46562;DHT22;32289;42.688;23.330;2023-07-29T05:16:42;22.20;66.60
46562;DHT22;32289;42.688;23.330;2023-07-29T05:20:23;22.50;65.20
46562;DHT22;32289;42.688;23.330;2023-07-29T05:24:04;21.90;66.10
46562;DHT22;32289;42.688;23.330;2023-07-29T05:27:46;23.00;62.50
46562;DHT22;32289;42.688;23.330;2023-07-29T05:31:26;23.30;63.00
46562;DHT22;32289;42.688;23.330;2023-07-29T05:35:08;22.70;65.00
46562;DHT22;32289;42.688;23.330;2023-07-29T05:38:50;23.00;64.60
46562;DHT22;32289;42.688;23.330;2023-07-29T05:42:32;24.90;56.70
46562;DHT22;32289;42.688;23.330;2023-07-29T05:46:12;25.50;55.80
46562;DHT22;32289;42.688;23.330;2023-07-29T05:49:53;25.80;54.60
46562;DHT22;32289;42.688;23.330;2023-07-29T05:53:34;25.10;56.40
46562;DHT22;32289;42.688;23.330;2023-07-29T05:57:15;26.20;53.70
46562;DHT22;32289;42.688;23.330;2023-07-29T06:00:56;25.80;54.20
46562;DHT22;32289;42.688;23.330;2023-07-29T06:04:37;25.60;54.40
46562;DHT22;32289;42.688;23.330;2023-07-29T06:08:17;24.70;56.70
46562;DHT22;32289;42.688;23.330;2023-07-29T06:11:58;25.50;56.70
46562;DHT22;32289;42.688;23.330;2023-07-29T06:15:40;25.30;57.40
46562;DHT22;32289;42.688;23.330;2023-07-29T06:19:21;25.30;55.70
46562;DHT22;32289;42.688;23.330;2023-07-29T06:23:01;25.40;55.50
46562;DHT22;32289;42.688;23.330;2023-07-29T06:26:42;24.80;59.10
46562;DHT22;32289;42.688;23.330;2023-07-29T06:30:23;24.90;58.30
46562;DHT22;32289;42.688;23.330;2023-07-29T06:34:03;25.50;56.30
46562;DHT22;32289;42.688;23.330;2023-07-29T06:37:44;25.30;56.90
46562;DHT22;32289;42.688;23.330;2023-07-29T06:41:25;25.90;55.10
46562;DHT22;32289;42.688;23.330;2023-07-29T06:45:06;26.40;55.70
46562;DHT22;32289;42.688;23.330;2023-07-29T06:48:47;25.70;55.40
46562;DHT22;32289;42.688;23.330;2023-07-29T06:52:27;25.80;56.60
46562;DHT22;32289;42.688;23.330;2023-07-29T06:56:08;26.30;56.30
46562;DHT22;32289;42.688;23.330;2023-07-29T06:59:49;26.00;55.40
46562;DHT22;32289;42.688;23.330;2023-07-29T07:03:29;26.50;56.10
46562;DHT22;32289;42.688;23.330;2023-07-29T07:07:11;26.40;56.40
46562;DHT22;32289;42.688;23.330;2023-07-29T07:10:52;27.20;55.20
46562;DHT22;32289;42.688;23.330;2023-07-29T07:14:33;27.40;54.10
46562;DHT22;32289;42.688;23.330;2023-07-29T07:18:13;27.20;53.70
46562;DHT22;32289;42.688;23.330;2023-07-29T07:21:55;26.60;55.10
46562;DHT22;32289;42.688;23.330;2023-07-29T07:25:36;27.50;52.60
46562;DHT22;32289;42.688;23.330;2023-07-29T07:29:21;27.70;53.30
46562;DHT22;32289;42.688;23.330;2023-07-29T07:33:01;27.90;53.40
46562;DHT22;32289;42.688;23.330;2023-07-29T07:36:42;27.80;53.40
46562;DHT22;32289;42.688;23.330;2023-07-29T07:40:24;27.40;54.10
46562;DHT22;32289;42.688;23.330;2023-07-29T07:44:05;28.20;53.10
46562;DHT22;32289;42.688;23.330;2023-07-29T07:47:45;29.20;49.80
46562;DHT22;32289;42.688;23.330;2023-07-29T07:51:26;29.20;51.00
46562;DHT22;32289;42.688;23.330;2023-07-29T07:55:07;28.80;50.20
46562;DHT22;32289;42.688;23.330;2023-07-29T07:58:48;29.20;50.20
46562;DHT22;32289;42.688;23.330;2023-07-29T08:02:29;29.50;48.80
46562;DHT22;32289;42.688;23.330;2023-07-29T08:06:10;29.40;48.90
46562;DHT22;32289;42.688;23.330;2023-07-29T08:09:50;29.00;47.30
46562;DHT22;32289;42.688;23.330;2023-07-29T08:13:31;29.50;49.20
46562;DHT22;32289;42.688;23.330;2023-07-29T08:17:12;30.20;47.40
46562;DHT22;32289;42.688;23.330;2023-07-29T08:20:55;30.40;46.60
46562;DHT22;32289;42.688;23.330;2023-07-29T08:24:36;30.50;47.20
46562;DHT22;32289;42.688;23.330;2023-07-29T08:28:17;31.50;44.90
46562;DHT22;32289;42.688;23.330;2023-07-29T08:31:58;31.00;46.50
46562;DHT22;32289;42.688;23.330;2023-07-29T08:35:39;31.20;46.40
46562;DHT22;32289;42.688;23.330;2023-07-29T08:39:19;31.40;44.70
46562;DHT22;32289;42.688;23.330;2023-07-29T08:43:04;33.20;42.70
46562;DHT22;32289;42.688;23.330;2023-07-29T08:51:32;34.20;41.30
46562;DHT22;32289;42.688;23.330;2023-07-29T08:55:13;33.80;42.10
46562;DHT22;32289;42.688;23.330;2023-07-29T08:58:54;33.70;41.20
46562;DHT22;32289;42.688;23.330;2023-07-29T09:02:35;33.90;42.40
46562;DHT22;32289;42.688;23.330;2023-07-29T09:06:23;32.90;41.70
46562;DHT22;32289;42.688;23.330;2023-07-29T09:10:08;32.70;40.60
46562;DHT22;32289;42.688;23.330;2023-07-29T09:13:51;33.80;39.70
46562;DHT22;32289;42.688;23.330;2023-07-29T09:17:33;33.90;38.70
46562;DHT22;32289;42.688;23.330;2023-07-29T09:21:15;32.90;38.80
46562;DHT22;32289;42.688;23.330;2023-07-29T09:24:57;34.00;39.00
46562;DHT22;32289;42.688;23.330;2023-07-29T09:28:39;33.90;39.10
46562;DHT22;32289;42.688;23.330;2023-07-29T09:32:21;34.50;38.60
46562;DHT22;32289;42.688;23.330;2023-07-29T09:36:08;34.30;38.70
46562;DHT22;32289;42.688;23.330;2023-07-29T09:39:52;36.00;36.10
46562;DHT22;32289;42.688;23.330;2023-07-29T09:43:34;35.10;35.70
46562;DHT22;32289;42.688;23.330;2023-07-29T09:47:22;34.10;36.40
46562;DHT22;32289;42.688;23.330;2023-07-29T09:51:14;34.20;35.70
46562;DHT22;32289;42.688;23.330;2023-07-29T09:54:55;33.80;37.60
46562;DHT22;32289;42.688;23.330;2023-07-29T09:58:54;33.30;37.70
46562;DHT22;32289;42.688;23.330;2023-07-29T10:03:07;33.20;37.60
46562;DHT22;32289;42.688;23.330;2023-07-29T10:06:49;33.40;37.10
46562;DHT22;32289;42.688;23.330;2023-07-29T10:10:30;32.60;37.70
46562;DHT22;32289;42.688;23.330;2023-07-29T10:14:14;33.90;37.20
46562;DHT22;32289;42.688;23.330;2023-07-29T10:17:56;33.40;36.70
46562;DHT22;32289;42.688;23.330;2023-07-29T10:21:39;33.90;36.60
46562;DHT22;32289;42.688;23.330;2023-07-29T10:25:24;34.40;36.20
46562;DHT22;32289;42.688;23.330;2023-07-29T10:29:10;34.00;37.20
46562;DHT22;32289;42.688;23.330;2023-07-29T10:32:55;33.70;38.00
46562;DHT22;32289;42.688;23.330;2023-07-29T10:36:38;34.10;36.30
46562;DHT22;32289;42.688;23.330;2023-07-29T10:40:20;33.40;38.90
46562;DHT22;32289;42.688;23.330;2023-07-29T10:44:00;34.60;36.30
46562;DHT22;32289;42.688;23.330;2023-07-29T10:47:41;33.70;37.50
46562;DHT22;32289;42.688;23.330;2023-07-29T10:51:28;33.40;38.00
46562;DHT22;32289;42.688;23.330;2023-07-29T10:55:34;33.50;37.20
46562;DHT22;32289;42.688;23.330;2023-07-29T11:03:16;34.10;37.20
46562;DHT22;32289;42.688;23.330;2023-07-29T11:10:45;34.00;36.50
46562;DHT22;32289;42.688;23.330;2023-07-29T11:14:45;33.70;37.20
46562;DHT22;32289;42.688;23.330;2023-07-29T11:18:35;33.60;36.80
46562;DHT22;32289;42.688;23.330;2023-07-29T11:22:16;33.50;38.00
46562;DHT22;32289;42.688;23.330;2023-07-29T11:25:57;33.50;37.30
46562;DHT22;32289;42.688;23.330;2023-07-29T11:29:40;33.00;35.80
46562;DHT22;32289;42.688;23.330;2023-07-29T11:33:27;33.30;36.10
46562;DHT22;32289;42.688;23.330;2023-07-29T11:37:11;33.30;35.10
46562;DHT22;32289;42.688;23.330;2023-07-29T11:40:57;33.60;35.50
46562;DHT22;32289;42.688;23.330;2023-07-29T11:44:38;33.30;35.60
46562;DHT22;32289;42.688;23.330;2023-07-29T11:48:33;32.90;36.50
46562;DHT22;32289;42.688;23.330;2023-07-29T11:52:14;32.70;36.80
46562;DHT22;32289;42.688;23.330;2023-07-29T11:55:59;32.00;36.50
46562;DHT22;32289;42.688;23.330;2023-07-29T11:59:40;32.50;37.30
46562;DHT22;32289;42.688;23.330;2023-07-29T12:03:22;32.60;36.70
46562;DHT22;32289;42.688;23.330;2023-07-29T12:07:03;32.40;37.60
46562;DHT22;32289;42.688;23.330;2023-07-29T12:10:44;32.50;38.60
46562;DHT22;32289;42.688;23.330;2023-07-29T12:14:29;32.50;37.90
46562;DHT22;32289;42.688;23.330;2023-07-29T12:18:12;33.10;36.50
46562;DHT22;32289;42.688;23.330;2023-07-29T12:21:53;31.90;38.00
46562;DHT22;32289;42.688;23.330;2023-07-29T12:25:34;32.10;38.50
46562;DHT22;32289;42.688;23.330;2023-07-29T12:29:20;31.70;36.90
46562;DHT22;32289;42.688;23.330;2023-07-29T12:33:01;32.40;37.40
46562;DHT22;32289;42.688;23.330;2023-07-29T12:36:50;32.10;37.80
46562;DHT22;32289;42.688;23.330;2023-07-29T12:40:31;32.10;37.10
46562;DHT22;32289;42.688;23.330;2023-07-29T12:44:12;32.20;37.20
46562;DHT22;32289;42.688;23.330;2023-07-29T12:47:52;32.20;36.80
46562;DHT22;32289;42.688;23.330;2023-07-29T12:51:33;32.00;35.40
46562;DHT22;32289;42.688;23.330;2023-07-29T12:55:15;32.20;35.50
46562;DHT22;32289;42.688;23.330;2023-07-29T12:58:59;32.50;36.90
46562;DHT22;32289;42.688;23.330;2023-07-29T13:02:41;32.20;36.30
46562;DHT22;32289;42.688;23.330;2023-07-29T13:06:22;32.00;36.00
46562;DHT22;32289;42.688;23.330;2023-07-29T13:10:03;31.70;36.70
46562;DHT22;32289;42.688;23.330;2023-07-29T13:13:44;31.70;36.80
46562;DHT22;32289;42.688;23.330;2023-07-29T13:17:26;32.20;37.60
46562;DHT22;32289;42.688;23.330;2023-07-29T13:21:07;31.70;35.80
46562;DHT22;32289;42.688;23.330;2023-07-29T13:24:48;31.40;36.60
46562;DHT22;32289;42.688;23.330;2023-07-29T13:28:29;31.40;36.80
46562;DHT22;32289;42.688;23.330;2023-07-29T13:32:10;31.50;36.80
46562;DHT22;32289;42.688;23.330;2023-07-29T13:35:51;31.80;36.00
46562;DHT22;32289;42.688;23.330;2023-07-29T13:39:32;31.70;35.00
46562;DHT22;32289;42.688;23.330;2023-07-29T13:43:14;31.60;35.00
46562;DHT22;32289;42.688;23.330;2023-07-29T13:46:54;31.50;35.30
46562;DHT22;32289;42.688;23.330;2023-07-29T13:50:35;31.40;34.60
46562;DHT22;32289;42.688;23.330;2023-07-29T13:54:16;31.10;35.50
46562;DHT22;32289;42.688;23.330;2023-07-29T13:57:57;31.40;35.90
46562;DHT22;32289;42.688;23.330;2023-07-29T14:01:37;31.60;35.30
46562;DHT22;32289;42.688;23.330;2023-07-29T14:05:18;31.50;36.00
46562;DHT22;32289;42.688;23.330;2023-07-29T14:08:59;31.30;36.70
46562;DHT22;32289;42.688;23.330;2023-07-29T14:12:39;31.00;36.30
46562;DHT22;32289;42.688;23.330;2023-07-29T14:16:20;31.20;36.80
46562;DHT22;32289;42.688;23.330;2023-07-29T14:20:01;31.20;37.00
46562;DHT22;32289;42.688;23.330;2023-07-29T14:23:43;31.20;36.00
46562;DHT22;32289;42.688;23.330;2023-07-29T14:27:23;31.00;36.30
46562;DHT22;32289;42.688;23.330;2023-07-29T14:31:05;30.90;36.90
46562;DHT22;32289;42.688;23.330;2023-07-29T14:34:46;30.90;42.00
46562;DHT22;32289;42.688;23.330;2023-07-29T14:38:27;30.70;43.70
46562;DHT22;32289;42.688;23.330;2023-07-29T14:42:08;30.60;43.90
46562;DHT22;32289;42.688;23.330;2023-07-29T14:45:49;30.70;43.10
46562;DHT22;32289;42.688;23.330;2023-07-29T14:49:29;30.40;44.30
46562;DHT22;32289;42.688;23.330;2023-07-29T14:53:11;30.40;44.40
46562;DHT22;32289;42.688;23.330;2023-07-29T14:56:52;30.20;44.60
46562;DHT22;32289;42.688;23.330;2023-07-29T15:00:33;30.10;45.20
46562;DHT22;32289;42.688;23.330;2023-07-29T15:04:14;30.10;44.60
46562;DHT22;32289;42.688;23.330;2023-07-29T15:07:58;29.90;44.90
46562;DHT22;32289;42.688;23.330;2023-07-29T15:11:38;29.90;45.10
46562;DHT22;32289;42.688;23.330;2023-07-29T15:15:19;29.80;45.80
46562;DHT22;32289;42.688;23.330;2023-07-29T15:19:01;29.60;45.80
46562;DHT22;32289;42.688;23.330;2023-07-29T15:22:42;29.40;46.00
46562;DHT22;32289;42.688;23.330;2023-07-29T15:26:24;29.40;46.30
46562;DHT22;32289;42.688;23.330;2023-07-29T15:30:06;29.30;46.30
46562;DHT22;32289;42.688;23.330;2023-07-29T15:33:47;29.30;46.20
46562;DHT22;32289;42.688;23.330;2023-07-29T15:37:28;29.30;46.70
46562;DHT22;32289;42.688;23.330;2023-07-29T15:41:09;29.20;46.90
46562;DHT22;32289;42.688;23.330;2023-07-29T15:44:50;29.20;47.10
46562;DHT22;32289;42.688;23.330;2023-07-29T15:48:31;29.10;47.60
46562;DHT22;32289;42.688;23.330;2023-07-29T15:52:12;29.10;47.00
46562;DHT22;32289;42.688;23.330;2023-07-29T15:55:54;29.00;47.10
46562;DHT22;32289;42.688;23.330;2023-07-29T15:59:36;29.00;47.20
46562;DHT22;32289;42.688;23.330;2023-07-29T16:03:16;29.00;47.70
46562;DHT22;32289;42.688;23.330;2023-07-29T16:06:58;29.10;47.00
46562;DHT22;32289;42.688;23.330;2023-07-29T16:10:39;29.00;47.70
46562;DHT22;32289;42.688;23.330;2023-07-29T16:14:19;28.80;47.60
46562;DHT22;32289;42.688;23.330;2023-07-29T16:18:00;28.60;47.80
46562;DHT22;32289;42.688;23.330;2023-07-29T16:21:44;28.50;47.70
46562;DHT22;32289;42.688;23.330;2023-07-29T16:25:24;28.40;48.10
46562;DHT22;32289;42.688;23.330;2023-07-29T16:29:07;28.30;48.40
46562;DHT22;32289;42.688;23.330;2023-07-29T16:32:48;28.30;48.00
46562;DHT22;32289;42.688;23.330;2023-07-29T16:36:29;28.10;48.30
46562;DHT22;32289;42.688;23.330;2023-07-29T16:40:10;28.10;48.00
46562;DHT22;32289;42.688;23.330;2023-07-29T16:43:50;28.10;48.20
46562;DHT22;32289;42.688;23.330;2023-07-29T16:47:34;28.00;48.00
46562;DHT22;32289;42.688;23.330;2023-07-29T16:51:16;27.90;48.00
46562;DHT22;32289;42.688;23.330;2023-07-29T16:55:18;27.80;48.00
46562;DHT22;32289;42.688;23.330;2023-07-29T16:59:19;27.80;48.50
46562;DHT22;32289;42.688;23.330;2023-07-29T17:03:02;27.70;48.10
46562;DHT22;32289;42.688;23.330;2023-07-29T17:06:43;27.60;47.90
46562;DHT22;32289;42.688;23.330;2023-07-29T17:10:24;27.50;48.40
46562;DHT22;32289;42.688;23.330;2023-07-29T17:14:04;27.40;48.70
46562;DHT22;32289;42.688;23.330;2023-07-29T17:17:45;27.30;48.30
46562;DHT22;32289;42.688;23.330;2023-07-29T17:21:27;27.30;48.80
46562;DHT22;32289;42.688;23.330;2023-07-29T17:25:08;27.20;48.80
46562;DHT22;32289;42.688;23.330;2023-07-29T17:28:49;27.10;49.20
46562;DHT22;32289;42.688;23.330;2023-07-29T17:32:30;26.90;49.40
46562;DHT22;32289;42.688;23.330;2023-07-29T17:36:11;26.90;49.80
46562;DHT22;32289;42.688;23.330;2023-07-29T17:39:53;26.80;50.50
46562;DHT22;32289;42.688;23.330;2023-07-29T17:43:33;26.70;50.70
46562;DHT22;32289;42.688;23.330;2023-07-29T17:47:29;26.60;51.10
46562;DHT22;32289;42.688;23.330;2023-07-29T17:51:10;26.50;52.00
46562;DHT22;32289;42.688;23.330;2023-07-29T17:54:51;26.40;52.10
46562;DHT22;32289;42.688;23.330;2023-07-29T17:58:31;26.40;52.10
46562;DHT22;32289;42.688;23.330;2023-07-29T18:02:12;26.40;52.10
46562;DHT22;32289;42.688;23.330;2023-07-29T18:05:54;26.20;53.40
46562;DHT22;32289;42.688;23.330;2023-07-29T18:09:34;26.10;53.90
46562;DHT22;32289;42.688;23.330;2023-07-29T18:13:15;25.80;54.50
46562;DHT22;32289;42.688;23.330;2023-07-29T18:16:56;25.80;54.80
46562;DHT22;32289;42.688;23.330;2023-07-29T18:20:36;25.90;55.00
46562;DHT22;32289;42.688;23.330;2023-07-29T18:24:17;25.80;55.80
46562;DHT22;32289;42.688;23.330;2023-07-29T18:27:59;25.70;55.90
46562;DHT22;32289;42.688;23.330;2023-07-29T18:31:40;25.80;56.30
46562;DHT22;32289;42.688;23.330;2023-07-29T18:35:21;25.70;56.70
46562;DHT22;32289;42.688;23.330;2023-07-29T18:39:01;25.50;57.50
46562;DHT22;32289;42.688;23.330;2023-07-29T18:42:43;25.50;57.90
46562;DHT22;32289;42.688;23.330;2023-07-29T18:46:24;25.50;58.80
46562;DHT22;32289;42.688;23.330;2023-07-29T18:50:09;25.50;58.40
46562;DHT22;32289;42.688;23.330;2023-07-29T18:53:50;25.40;59.10
46562;DHT22;32289;42.688;23.330;2023-07-29T18:57:31;25.40;59.60
46562;DHT22;32289;42.688;23.330;2023-07-29T19:01:15;25.40;59.70
46562;DHT22;32289;42.688;23.330;2023-07-29T19:04:55;25.40;59.90
46562;DHT22;32289;42.688;23.330;2023-07-29T19:08:36;25.20;60.40
46562;DHT22;32289;42.688;23.330;2023-07-29T19:12:17;25.10;60.60
46562;DHT22;32289;42.688;23.330;2023-07-29T19:15:58;24.80;61.40
46562;DHT22;32289;42.688;23.330;2023-07-29T19:19:39;24.60;61.80
46562;DHT22;32289;42.688;23.330;2023-07-29T19:23:21;24.40;62.60
46562;DHT22;32289;42.688;23.330;2023-07-29T19:27:04;24.30;63.70
46562;DHT22;32289;42.688;23.330;2023-07-29T19:30:46;24.50;63.30
46562;DHT22;32289;42.688;23.330;2023-07-29T19:34:36;24.70;63.70
46562;DHT22;32289;42.688;23.330;2023-07-29T19:38:37;24.50;63.70
46562;DHT22;32289;42.688;23.330;2023-07-29T19:42:18;24.50;64.30
46562;DHT22;32289;42.688;23.330;2023-07-29T19:46:01;24.10;65.30
46562;DHT22;32289;42.688;23.330;2023-07-29T19:49:43;24.00;66.40
46562;DHT22;32289;42.688;23.330;2023-07-29T19:53:24;23.80;67.10
46562;DHT22;32289;42.688;23.330;2023-07-29T19:57:07;23.70;67.60
46562;DHT22;32289;42.688;23.330;2023-07-29T20:00:51;23.90;67.80
46562;DHT22;32289;42.688;23.330;2023-07-29T20:04:32;24.00;66.20
46562;DHT22;32289;42.688;23.330;2023-07-29T20:08:14;24.10;67.40
46562;DHT22;32289;42.688;23.330;2023-07-29T20:11:54;23.90;67.40
46562;DHT22;32289;42.688;23.330;2023-07-29T20:15:36;23.60;68.00
46562;DHT22;32289;42.688;23.330;2023-07-29T20:19:17;23.40;68.90
46562;DHT22;32289;42.688;23.330;2023-07-29T20:23:00;23.30;69.20
46562;DHT22;32289;42.688;23.330;2023-07-29T20:26:41;23.20;69.70
46562;DHT22;32289;42.688;23.330;2023-07-29T20:30:22;23.30;69.70
46562;DHT22;32289;42.688;23.330;2023-07-29T20:34:02;23.30;69.50
46562;DHT22;32289;42.688;23.330;2023-07-29T20:37:45;23.30;70.50
46562;DHT22;32289;42.688;23.330;2023-07-29T20:41:26;23.20;69.90
46562;DHT22;32289;42.688;23.330;2023-07-29T20:45:07;23.00;70.60
46562;DHT22;32289;42.688;23.330;2023-07-29T20:48:49;22.80;70.50
46562;DHT22;32289;42.688;23.330;2023-07-29T20:52:30;23.00;70.80
46562;DHT22;32289;42.688;23.330;2023-07-29T20:56:13;22.80;70.80
46562;DHT22;32289;42.688;23.330;2023-07-29T20:59:55;22.80;70.90
46562;DHT22;32289;42.688;23.330;2023-07-29T21:03:36;22.80;71.10
46562;DHT22;32289;42.688;23.330;2023-07-29T21:07:20;22.90;71.80
46562;DHT22;32289;42.688;23.330;2023-07-29T21:11:01;22.70;71.60
46562;DHT22;32289;42.688;23.330;2023-07-29T21:14:50;22.60;72.00
46562;DHT22;32289;42.688;23.330;2023-07-29T21:18:31;22.70;73.00
46562;DHT22;32289;42.688;23.330;2023-07-29T21:22:12;22.90;72.80
46562;DHT22;32289;42.688;23.330;2023-07-29T21:25:53;22.70;73.00
46562;DHT22;32289;42.688;23.330;2023-07-29T21:29:34;22.80;73.60
46562;DHT22;32289;42.688;23.330;2023-07-29T21:33:15;22.70;73.80
46562;DHT22;32289;42.688;23.330;2023-07-29T21:36:55;22.50;73.50
46562;DHT22;32289;42.688;23.330;2023-07-29T21:40:37;22.50;74.80
46562;DHT22;32289;42.688;23.330;2023-07-29T21:44:18;22.20;74.90
46562;DHT22;32289;42.688;23.330;2023-07-29T21:47:58;21.90;76.10
46562;DHT22;32289;42.688;23.330;2023-07-29T21:51:39;21.60;77.10
46562;DHT22;32289;42.688;23.330;2023-07-29T21:55:20;21.50;78.00
46562;DHT22;32289;42.688;23.330;2023-07-29T21:59:00;21.70;77.70
46562;DHT22;32289;42.688;23.330;2023-07-29T22:02:42;21.70;77.90
46562;DHT22;32289;42.688;23.330;2023-07-29T22:06:23;21.80;78.20
46562;DHT22;32289;42.688;23.330;2023-07-29T22:10:06;21.90;77.70
46562;DHT22;32289;42.688;23.330;2023-07-29T22:13:48;21.90;77.70
46562;DHT22;32289;42.688;23.330;2023-07-29T22:17:29;21.90;79.20
46562;DHT22;32289;42.688;23.330;2023-07-29T22:21:11;21.80;78.40
46562;DHT22;32289;42.688;23.330;2023-07-29T22:24:52;21.90;78.60
46562;DHT22;32289;42.688;23.330;2023-07-29T22:28:34;21.80;78.90
46562;DHT22;32289;42.688;23.330;2023-07-29T22:32:15;21.70;79.70
46562;DHT22;32289;42.688;23.330;2023-07-29T22:36:01;21.70;80.70
46562;DHT22;32289;42.688;23.330;2023-07-29T22:39:42;21.70;80.30
46562;DHT22;32289;42.688;23.330;2023-07-29T22:43:23;21.60;81.50
46562;DHT22;32289;42.688;23.330;2023-07-29T22:47:04;21.60;80.30
46562;DHT22;32289;42.688;23.330;2023-07-29T22:50:46;21.50;81.10
46562;DHT22;32289;42.688;23.330;2023-07-29T22:54:27;21.30;81.40
46562;DHT22;32289;42.688;23.330;2023-07-29T22:58:11;21.20;82.40
46562;DHT22;32289;42.688;23.330;2023-07-29T23:01:54;21.30;82.00
46562;DHT22;32289;42.688;23.330;2023-07-29T23:05:38;21.10;81.90
46562;DHT22;32289;42.688;23.330;2023-07-29T23:09:19;21.10;81.70
46562;DHT22;32289;42.688;23.330;2023-07-29T23:13:00;21.00;84.00
46562;DHT22;32289;42.688;23.330;2023-07-29T23:16:41;20.90;84.20
46562;DHT22;32289;42.688;23.330;2023-07-29T23:20:22;20.90;84.60